createdAt,value
2023-01-11T00:01:57.424Z,2.77
2023-01-11T00:04:30.029Z,2.40
2023-01-11T00:06:57.918Z,3.17
2023-01-11T00:09:24.875Z,1.97
2023-01-11T00:11:51.612Z,3.30
2023-01-11T00:14:18.313Z,1.93
2023-01-11T00:16:44.980Z,2.03
2023-01-11T00:19:11.718Z,1.53
2023-01-11T00:21:38.504Z,1.17
2023-01-11T00:24:05.594Z,3.27
2023-01-11T00:26:32.305Z,3.47
2023-01-11T00:28:59.028Z,1.43
2023-01-11T00:31:25.844Z,1.90
2023-01-11T00:33:52.815Z,2.47
2023-01-11T00:36:19.557Z,2.07
2023-01-11T00:38:53.753Z,1.17
2023-01-11T00:41:41.335Z,1.23
2023-01-11T00:44:29.316Z,0.67
2023-01-11T00:47:14.854Z,1.63
2023-01-11T00:49:42.523Z,1.13
2023-01-11T00:52:10.050Z,1.57
2023-01-11T00:54:41.295Z,0.93
2023-01-11T00:57:08.722Z,2.90
2023-01-11T00:59:39.519Z,1.90
2023-01-11T01:02:06.652Z,1.83
2023-01-11T01:04:33.477Z,1.40
2023-01-11T01:07:00.159Z,0.80
2023-01-11T01:09:27.002Z,2.57
2023-01-11T01:11:53.724Z,1.20
2023-01-11T01:14:28.549Z,1.13
2023-01-11T01:17:07.547Z,2.67
2023-01-11T01:19:36.525Z,2.23
2023-01-11T01:22:06.186Z,1.00
2023-01-11T01:24:33.873Z,0.57
2023-01-11T01:27:00.571Z,0.80
2023-01-11T01:29:27.418Z,1.27
2023-01-11T01:31:54.178Z,1.03
2023-01-11T01:34:20.806Z,0.70
2023-01-11T01:36:47.434Z,1.80
2023-01-11T01:39:16.750Z,2.43
2023-01-11T01:41:43.399Z,2.53
2023-01-11T01:44:48.127Z,0.70
2023-01-11T01:47:15.522Z,0.50
2023-01-11T01:49:43.787Z,1.70
2023-01-11T01:52:11.576Z,1.40
2023-01-11T01:54:42.317Z,2.07
2023-01-11T01:57:20.348Z,1.20
2023-01-11T01:59:51.809Z,1.73
2023-01-11T02:02:24.728Z,2.27
2023-01-11T02:04:53.031Z,1.37
2023-01-11T02:07:22.694Z,1.23
2023-01-11T02:10:13.270Z,1.50
2023-01-11T02:13:00.631Z,2.57
2023-01-11T02:15:28.658Z,2.10
2023-01-11T02:17:55.422Z,1.00
2023-01-11T02:20:31.061Z,0.90
2023-01-11T02:23:25.595Z,1.87
2023-01-11T02:26:26.474Z,1.10
2023-01-11T02:29:13.973Z,1.57
2023-01-11T02:32:05.616Z,0.63
2023-01-11T02:34:37.908Z,0.43
2023-01-11T02:37:25.926Z,0.43
2023-01-11T02:40:27.483Z,2.77
2023-01-11T02:43:33.448Z,1.80
2023-01-11T02:46:18.525Z,1.40
2023-01-11T02:48:56.312Z,0.40
2023-01-11T02:51:28.543Z,0.90
2023-01-11T02:54:01.162Z,2.07
2023-01-11T02:56:31.993Z,0.90
2023-01-11T02:59:00.577Z,1.33
2023-01-11T03:01:27.273Z,1.37
2023-01-11T03:03:54.181Z,0.40
2023-01-11T03:06:25.910Z,0.60
2023-01-11T03:08:55.373Z,0.77
2023-01-11T03:12:01.218Z,0.40
2023-01-11T03:14:45.786Z,1.23
2023-01-11T03:17:40.180Z,2.13
2023-01-11T03:20:14.113Z,1.23
2023-01-11T03:22:43.831Z,2.00
2023-01-11T03:25:44.367Z,1.13
2023-01-11T03:28:16.781Z,2.00
2023-01-11T03:30:48.903Z,1.63
2023-01-11T03:33:28.285Z,0.50
2023-01-11T03:36:01.558Z,1.13
2023-01-11T03:38:36.485Z,1.67
2023-01-11T03:41:12.938Z,1.23
2023-01-11T03:43:41.483Z,1.00
2023-01-11T03:46:15.995Z,0.60
2023-01-11T03:48:49.797Z,0.50
2023-01-11T03:51:22.226Z,2.53
2023-01-11T03:53:50.619Z,1.07
2023-01-11T03:56:21.083Z,0.70
2023-01-11T03:58:50.137Z,0.90
2023-01-11T04:01:16.953Z,2.43
2023-01-11T04:03:43.649Z,1.50
2023-01-11T04:06:11.680Z,0.50
2023-01-11T04:08:38.414Z,0.67
2023-01-11T04:11:05.494Z,0.80
2023-01-11T04:13:34.061Z,1.07
2023-01-11T04:16:00.932Z,1.00
2023-01-11T04:18:27.840Z,0.67
2023-01-11T04:20:54.448Z,0.60
2023-01-11T04:23:21.294Z,0.97
2023-01-11T04:25:48.042Z,2.00
2023-01-11T04:28:14.959Z,0.83
2023-01-11T04:30:41.592Z,1.37
2023-01-11T04:33:08.303Z,0.67
2023-01-11T04:35:41.955Z,1.27
2023-01-11T04:38:08.590Z,1.80
2023-01-11T04:40:35.252Z,0.53
2023-01-11T04:43:02.360Z,0.70
2023-01-11T04:45:30.246Z,1.97
2023-01-11T04:47:57.831Z,0.63
2023-01-11T04:50:26.173Z,0.50
2023-01-11T04:52:53.461Z,2.13
2023-01-11T04:55:20.458Z,0.40
2023-01-11T04:57:47.321Z,1.90
2023-01-11T05:00:15.921Z,0.67
2023-01-11T05:02:42.856Z,0.80
2023-01-11T05:05:10.934Z,0.30
2023-01-11T05:07:40.911Z,0.37
2023-01-11T05:10:07.966Z,0.30
2023-01-11T05:12:34.728Z,0.20
2023-01-11T05:15:01.381Z,1.20
2023-01-11T05:17:28.023Z,0.30
2023-01-11T05:19:54.704Z,0.30
2023-01-11T05:25:00.151Z,0.87
2023-01-11T05:27:26.748Z,2.17
2023-01-11T05:29:53.452Z,1.00
2023-01-11T05:32:20.179Z,0.87
2023-01-11T05:34:46.935Z,0.90
2023-01-11T05:37:13.572Z,0.77
2023-01-11T05:39:40.282Z,0.97
2023-01-11T05:42:06.967Z,0.37
2023-01-11T05:44:52.214Z,0.37
2023-01-11T05:47:18.840Z,0.80
2023-01-11T05:49:45.560Z,0.93
2023-01-11T05:52:12.612Z,0.70
2023-01-11T05:54:39.398Z,1.17
2023-01-11T05:57:10.463Z,0.30
2023-01-11T05:59:37.267Z,1.43
2023-01-11T06:02:03.940Z,0.40
2023-01-11T06:04:30.700Z,1.67
2023-01-11T06:06:57.445Z,1.87
2023-01-11T06:09:26.684Z,0.30
2023-01-11T06:11:53.376Z,0.30
2023-01-11T06:14:20.027Z,1.40
2023-01-11T06:16:46.754Z,0.33
2023-01-11T06:19:13.513Z,1.27
2023-01-11T06:21:40.418Z,0.90
2023-01-11T06:24:07.395Z,0.50
2023-01-11T06:26:34.141Z,0.50
2023-01-11T06:29:00.900Z,1.27
2023-01-11T06:31:27.704Z,1.73
2023-01-11T06:33:54.366Z,0.50
2023-01-11T06:36:25.232Z,0.63
2023-01-11T06:38:52.568Z,0.40
2023-01-11T06:41:19.794Z,1.40
2023-01-11T06:43:46.777Z,2.10
2023-01-11T06:46:15.549Z,0.77
2023-01-11T06:48:43.278Z,0.50
2023-01-11T06:51:12.770Z,1.10
2023-01-11T06:53:41.302Z,0.60
2023-01-11T06:56:13.633Z,1.47
2023-01-11T06:58:40.382Z,1.23
2023-01-11T07:01:07.463Z,1.87
2023-01-11T07:03:34.526Z,0.77
2023-01-11T07:06:01.995Z,0.70
2023-01-11T07:08:28.712Z,0.93
2023-01-11T07:10:55.558Z,3.97
2023-01-11T07:13:22.624Z,0.30
2023-01-11T07:15:50.836Z,1.10
2023-01-11T07:18:18.992Z,1.60
2023-01-11T07:20:45.738Z,0.97
2023-01-11T07:23:12.716Z,0.50
2023-01-11T07:25:40.887Z,0.60
2023-01-11T07:28:08.603Z,0.40
2023-01-11T07:30:56.142Z,2.00
2023-01-11T07:33:28.005Z,0.83
2023-01-11T07:35:54.905Z,1.23
2023-01-11T07:38:22.185Z,0.70
2023-01-11T07:40:48.861Z,0.90
2023-01-11T07:43:15.708Z,0.63
2023-01-11T07:45:49.394Z,0.70
2023-01-11T07:48:20.784Z,1.07
2023-01-11T07:50:48.285Z,1.23
2023-01-11T07:53:15.031Z,3.83
2023-01-11T07:55:42.145Z,0.90
2023-01-11T07:58:12.423Z,1.73
2023-01-11T08:00:40.756Z,1.33
2023-01-11T08:03:08.028Z,2.00
2023-01-11T08:05:34.910Z,0.80
2023-01-11T08:08:01.946Z,1.83
2023-01-11T08:10:28.919Z,0.83
2023-01-11T08:13:14.288Z,1.17
2023-01-11T08:15:44.225Z,1.33
2023-01-11T08:18:12.551Z,1.10
2023-01-11T08:20:40.590Z,1.47
2023-01-11T08:23:09.494Z,2.00
2023-01-11T08:25:36.673Z,1.50
2023-01-11T08:28:05.568Z,1.00
2023-01-11T08:30:32.425Z,2.70
2023-01-11T08:33:01.653Z,1.63
2023-01-11T08:35:28.563Z,2.90
2023-01-11T08:37:55.303Z,1.53
2023-01-11T08:40:24.042Z,1.63
2023-01-11T08:42:57.270Z,3.57
2023-01-11T08:45:24.621Z,2.67
2023-01-11T08:47:52.052Z,1.93
2023-01-11T08:50:19.663Z,1.60
2023-01-11T08:52:47.355Z,3.13
2023-01-11T08:55:14.138Z,2.73
2023-01-11T08:57:40.796Z,4.77
2023-01-11T09:00:10.464Z,3.93
2023-01-11T09:02:37.202Z,3.03
2023-01-11T09:05:04.271Z,1.83
2023-01-11T09:07:30.934Z,0.73
2023-01-11T09:09:57.668Z,1.37
2023-01-11T09:12:24.564Z,4.17
2023-01-11T09:14:51.307Z,1.73
2023-01-11T09:17:17.992Z,1.00
2023-01-11T09:19:44.632Z,0.67
2023-01-11T09:22:11.376Z,0.80
2023-01-11T09:24:38.045Z,1.17
2023-01-11T09:27:05.061Z,1.70
2023-01-11T09:29:31.999Z,1.97
2023-01-11T09:31:59.098Z,2.00
2023-01-11T09:34:27.320Z,0.80
2023-01-11T09:36:59.972Z,1.30
2023-01-11T09:39:28.346Z,0.77
2023-01-11T09:42:01.855Z,0.60
2023-01-11T09:44:30.808Z,0.97
2023-01-11T09:47:17.321Z,1.70
2023-01-11T09:49:50.823Z,1.33
2023-01-11T09:52:37.036Z,0.57
2023-01-11T09:55:04.571Z,0.80
2023-01-11T09:57:38.316Z,0.70
2023-01-11T10:00:05.120Z,0.57
2023-01-11T10:02:53.181Z,0.87
2023-01-11T10:05:38.230Z,0.83
2023-01-11T10:18:27.831Z,0.97
2023-01-11T10:18:48.847Z,0.77
2023-01-11T10:21:19.139Z,0.43
2023-01-11T10:24:01.211Z,1.60
2023-01-11T10:26:36.228Z,0.90
2023-01-11T10:29:55.610Z,1.00
2023-01-11T10:32:45.910Z,1.97
2023-01-11T10:35:58.128Z,2.97
2023-01-11T10:38:58.801Z,4.57
2023-01-11T10:41:51.119Z,1.00
2023-01-11T10:44:52.707Z,2.33
2023-01-11T10:47:24.678Z,1.57
2023-01-11T10:50:20.553Z,1.20
2023-01-11T10:53:01.204Z,1.17
2023-01-11T10:55:45.365Z,1.20
2023-01-11T10:58:30.713Z,1.27
2023-01-11T11:01:28.450Z,2.20
2023-01-11T11:04:19.016Z,1.33
2023-01-11T11:06:57.767Z,1.27
2023-01-11T11:09:55.322Z,2.07
2023-01-11T11:12:32.438Z,2.43
2023-01-11T11:15:23.606Z,0.97
2023-01-11T11:17:51.837Z,3.20
2023-01-11T11:20:20.950Z,1.83
2023-01-11T11:22:52.108Z,0.90
2023-01-11T11:25:23.044Z,1.93
2023-01-11T11:28:16.273Z,3.40
2023-01-11T11:30:45.892Z,1.37
2023-01-11T11:33:24.808Z,1.30
2023-01-11T11:35:58.951Z,1.43
2023-01-11T11:38:30.467Z,2.57
2023-01-11T11:41:09.374Z,1.77
2023-01-11T11:43:38.340Z,1.53
2023-01-11T11:46:27.001Z,1.93
2023-01-11T11:49:12.820Z,1.90
2023-01-11T11:51:41.182Z,4.23
2023-01-11T11:54:25.115Z,0.90
2023-01-11T11:56:52.432Z,1.10
2023-01-11T11:59:21.847Z,3.97
2023-01-11T12:01:56.562Z,1.53
2023-01-11T12:04:32.310Z,0.97
2023-01-11T12:07:22.135Z,0.50
2023-01-11T12:10:03.015Z,0.60
2023-01-11T12:12:32.781Z,0.50
2023-01-11T12:15:14.911Z,0.50
2023-01-11T12:17:42.551Z,0.50
2023-01-11T12:20:31.616Z,1.13
2023-01-11T12:23:17.029Z,0.77
2023-01-11T12:26:00.227Z,0.67
2023-01-11T12:28:29.897Z,3.73
2023-01-11T12:31:15.708Z,0.77
2023-01-11T12:34:09.350Z,1.53
2023-01-11T12:37:03.601Z,0.67
2023-01-11T12:39:48.956Z,0.40
2023-01-11T12:42:39.794Z,0.40
2023-01-11T12:45:24.675Z,0.50
2023-01-11T12:48:15.719Z,0.20
2023-01-11T12:51:04.200Z,0.40
2023-01-11T12:53:38.091Z,0.20
2023-01-11T12:56:36.472Z,0.67
2023-01-11T12:59:33.356Z,0.20
2023-01-11T13:02:35.003Z,0.87
2023-01-11T13:05:16.598Z,0.63
2023-01-11T13:08:01.757Z,1.60
2023-01-11T13:10:49.829Z,1.60
2023-01-11T13:13:26.912Z,0.90
2023-01-11T13:16:09.456Z,0.83
2023-01-11T13:18:57.270Z,0.40
2023-01-11T13:21:34.400Z,1.43
2023-01-11T13:24:26.288Z,0.80
2023-01-11T13:26:59.486Z,0.50
2023-01-11T13:29:40.887Z,0.50
2023-01-11T13:32:14.121Z,1.20
2023-01-11T13:35:03.852Z,0.60
2023-01-11T13:38:03.802Z,0.50
2023-01-11T13:40:38.660Z,0.60
2023-01-11T13:43:08.643Z,0.50
2023-01-11T13:45:37.684Z,0.40
2023-01-11T13:48:28.453Z,0.60
2023-01-11T13:51:33.985Z,0.43
2023-01-11T13:54:05.464Z,0.50
2023-01-11T13:56:55.190Z,0.70
2023-01-11T13:59:35.087Z,1.57
2023-01-11T14:02:27.044Z,0.57
2023-01-11T14:05:28.102Z,0.80
2023-01-11T14:08:00.802Z,1.70
2023-01-11T14:10:42.072Z,1.50
2023-01-11T14:13:56.829Z,1.97
2023-01-11T14:16:29.640Z,0.80
2023-01-11T14:19:17.170Z,1.90
2023-01-11T14:22:12.740Z,1.67
2023-01-11T14:24:49.003Z,2.00
2023-01-11T14:27:18.582Z,2.33
2023-01-11T14:30:21.863Z,1.63
2023-01-11T14:33:17.820Z,1.80
2023-01-11T14:36:00.365Z,2.00
2023-01-11T14:38:48.253Z,1.00
2023-01-11T14:41:32.254Z,0.80
2023-01-11T14:44:04.940Z,0.90
2023-01-11T14:46:55.658Z,3.67
2023-01-11T14:49:49.938Z,1.90
2023-01-11T14:52:38.869Z,1.50
2023-01-11T14:55:22.750Z,0.90
2023-01-11T14:58:24.545Z,0.60
2023-01-11T15:00:54.321Z,1.50
2023-01-11T15:03:21.263Z,2.20
2023-01-11T15:06:13.594Z,0.80
2023-01-11T15:08:57.711Z,2.30
2023-01-11T15:11:33.839Z,0.73
2023-01-11T15:14:30.276Z,0.47
2023-01-11T15:17:19.734Z,2.00
2023-01-11T15:19:48.948Z,1.80
2023-01-11T15:22:29.966Z,0.83
2023-01-11T15:25:02.989Z,0.70
2023-01-11T15:27:37.990Z,2.03
2023-01-11T15:30:08.055Z,0.80
2023-01-11T15:32:37.555Z,0.50
2023-01-11T15:35:36.505Z,3.70
2023-01-11T15:38:21.750Z,0.93
2023-01-11T15:40:50.189Z,1.43
2023-01-11T15:43:35.877Z,0.97
2023-01-11T15:46:43.215Z,0.63
2023-01-11T15:49:47.271Z,1.10
2023-01-11T15:52:22.108Z,2.10
2023-01-11T15:55:10.281Z,2.00
2023-01-11T15:57:45.924Z,1.20
2023-01-11T16:00:34.701Z,0.80
2023-01-11T16:03:22.558Z,1.90
2023-01-11T16:06:12.619Z,1.13
2023-01-11T16:08:46.175Z,1.80
2023-01-11T16:12:06.278Z,1.23
2023-01-11T16:14:54.706Z,2.77
2023-01-11T16:17:24.482Z,5.73
2023-01-11T16:19:56.721Z,1.20
2023-01-11T16:22:26.487Z,3.17
2023-01-11T16:25:01.380Z,3.10
2023-01-11T16:27:31.049Z,2.67
2023-01-11T16:30:03.785Z,2.27
2023-01-11T16:32:40.441Z,1.73
2023-01-11T16:35:20.603Z,1.40
2023-01-11T16:38:01.370Z,2.43
2023-01-11T16:40:36.068Z,2.73
2023-01-11T16:43:08.620Z,2.97
2023-01-11T16:45:49.821Z,3.70
2023-01-11T16:48:29.807Z,4.37
2023-01-11T16:51:09.276Z,2.70
2023-01-11T16:53:40.267Z,3.00
2023-01-11T16:56:17.965Z,3.67
2023-01-11T16:59:01.980Z,2.27
2023-01-11T17:01:47.419Z,2.93
2023-01-11T17:04:30.631Z,3.03
2023-01-11T17:07:11.498Z,1.53
2023-01-11T17:09:38.270Z,4.87
2023-01-11T17:12:06.377Z,3.00
2023-01-11T17:14:54.099Z,2.53
2023-01-11T17:17:21.402Z,2.80
2023-01-11T17:19:50.294Z,4.10
2023-01-11T17:22:25.018Z,3.47
2023-01-11T17:25:01.236Z,4.20
2023-01-11T17:27:45.474Z,5.40
2023-01-11T17:30:24.034Z,4.83
2023-01-11T17:32:56.029Z,5.63
2023-01-11T17:35:25.457Z,3.17
2023-01-11T17:37:58.366Z,3.10
2023-01-11T17:40:35.902Z,2.90
2023-01-11T17:43:25.455Z,5.00
2023-01-11T17:45:58.014Z,4.80
2023-01-11T17:48:27.150Z,4.20
2023-01-11T17:50:57.762Z,4.97
2023-01-11T17:53:26.547Z,3.97
2023-01-11T17:56:07.396Z,3.50
2023-01-11T17:58:35.877Z,3.57
2023-01-11T18:01:08.347Z,3.57
2023-01-11T18:03:44.043Z,4.07
2023-01-11T18:06:31.688Z,4.57
2023-01-11T18:08:59.677Z,2.33
2023-01-11T18:11:29.234Z,3.73
2023-01-11T18:14:02.552Z,1.40
2023-01-11T18:16:29.778Z,3.07
2023-01-11T18:18:56.844Z,2.60
2023-01-11T18:21:26.406Z,2.00
2023-01-11T18:24:11.408Z,1.93
2023-01-11T18:26:40.315Z,1.37
2023-01-11T18:29:36.096Z,3.50
2023-01-11T18:32:07.165Z,2.33
2023-01-11T18:34:33.903Z,3.77
2023-01-11T18:37:02.352Z,4.80
2023-01-11T18:39:29.264Z,1.83
2023-01-11T18:42:08.250Z,3.43
2023-01-11T18:44:36.272Z,3.47
2023-01-11T18:47:16.828Z,4.17
2023-01-11T18:49:43.897Z,4.00
2023-01-11T18:52:11.565Z,3.83
2023-01-11T18:54:38.661Z,8.43
2023-01-11T18:57:05.642Z,7.27
2023-01-11T18:59:32.494Z,2.80
2023-01-11T19:02:18.041Z,2.80
2023-01-11T19:04:45.953Z,3.03
2023-01-11T19:07:14.002Z,3.70
2023-01-11T19:09:40.873Z,3.30
2023-01-11T19:12:08.074Z,2.63
2023-01-11T19:14:37.929Z,4.43
2023-01-11T19:17:04.813Z,5.00
2023-01-11T19:19:34.779Z,4.70
2023-01-11T19:22:01.798Z,4.03
2023-01-11T19:24:28.699Z,5.07
2023-01-11T19:26:55.825Z,5.13
2023-01-11T19:29:24.633Z,4.53
2023-01-11T19:31:54.612Z,5.97
2023-01-11T19:34:22.119Z,4.67
2023-01-11T19:36:50.172Z,4.60
2023-01-11T19:39:17.248Z,3.93
2023-01-11T19:41:57.955Z,5.17
2023-01-11T19:44:27.301Z,8.17
2023-01-11T19:47:10.362Z,5.60
2023-01-11T19:49:38.664Z,4.80
2023-01-11T19:52:14.013Z,9.40
2023-01-11T19:54:42.651Z,3.10
2023-01-11T19:57:20.896Z,4.33
2023-01-11T19:59:51.927Z,4.00
2023-01-11T20:02:22.036Z,2.77
2023-01-11T20:04:48.915Z,3.00
2023-01-11T20:07:16.252Z,4.10
2023-01-11T20:09:43.397Z,7.00
2023-01-11T20:12:12.869Z,3.77
2023-01-11T20:14:40.575Z,5.60
2023-01-11T20:17:08.022Z,3.13
2023-01-11T20:19:34.820Z,4.53
2023-01-11T20:22:01.712Z,3.93
2023-01-11T20:24:29.915Z,6.20
2023-01-11T20:27:00.495Z,3.70
2023-01-11T20:29:27.568Z,3.37
2023-01-11T20:31:54.331Z,4.33
2023-01-11T20:34:21.190Z,3.80
2023-01-11T20:36:48.919Z,3.30
2023-01-11T20:39:15.907Z,2.43
2023-01-11T20:41:49.602Z,5.13
2023-01-11T20:44:21.695Z,5.80
2023-01-11T20:46:48.634Z,6.47
2023-01-11T20:49:16.050Z,6.33
2023-01-11T20:51:43.984Z,4.77
2023-01-11T20:54:11.136Z,4.33
2023-01-11T20:56:39.143Z,4.60
2023-01-11T20:59:07.708Z,4.70
2023-01-11T21:01:35.155Z,3.13
2023-01-11T21:04:04.779Z,2.57
2023-01-11T21:06:33.268Z,3.93
2023-01-11T21:09:01.756Z,4.77
2023-01-11T21:11:31.205Z,4.30
2023-01-11T21:13:59.536Z,6.90
2023-01-11T21:16:27.981Z,4.53
2023-01-11T21:18:58.387Z,3.63
2023-01-11T21:21:26.122Z,6.50
2023-01-11T21:23:58.029Z,5.60
2023-01-11T21:26:26.218Z,5.27
2023-01-11T21:28:56.156Z,7.07
2023-01-11T21:31:23.090Z,7.70
2023-01-11T21:33:50.260Z,9.10
2023-01-11T21:36:20.685Z,5.40
2023-01-11T21:38:47.646Z,10.23
2023-01-11T21:41:17.876Z,3.63
2023-01-11T21:43:45.255Z,3.87
2023-01-11T21:46:12.868Z,4.43
2023-01-11T21:48:39.858Z,4.77
2023-01-11T21:51:09.965Z,3.67
2023-01-11T21:53:37.032Z,3.73
2023-01-11T21:56:06.421Z,4.73
2023-01-11T21:58:34.641Z,3.87
2023-01-11T22:01:13.158Z,3.40
2023-01-11T22:03:42.207Z,3.33
2023-01-11T22:06:09.814Z,4.43
2023-01-11T22:08:38.126Z,6.10
2023-01-11T22:11:06.264Z,4.37
2023-01-11T22:13:35.260Z,3.13
2023-01-11T22:16:11.611Z,3.13
2023-01-11T22:18:40.505Z,5.97
2023-01-11T22:21:18.977Z,5.13
2023-01-11T22:23:47.266Z,3.10
2023-01-11T22:26:16.366Z,3.33
2023-01-11T22:29:02.144Z,3.57
2023-01-11T22:31:30.681Z,3.90
2023-01-11T22:33:57.989Z,2.93
2023-01-11T22:36:26.279Z,3.07
2023-01-11T22:38:53.458Z,3.73
2023-01-11T22:41:21.077Z,5.50
2023-01-11T22:43:48.516Z,6.23
2023-01-11T22:46:21.346Z,4.63
2023-01-11T22:48:48.729Z,4.93
2023-01-11T22:51:21.255Z,4.93
2023-01-11T22:53:49.221Z,4.07
2023-01-11T22:56:19.039Z,3.60
2023-01-11T22:58:47.265Z,1.50
2023-01-11T23:01:18.914Z,2.93
2023-01-11T23:03:46.360Z,4.03
2023-01-11T23:06:19.767Z,3.77
2023-01-11T23:08:46.585Z,3.60
2023-01-11T23:11:35.150Z,3.37
2023-01-11T23:14:04.283Z,3.83
2023-01-11T23:16:31.107Z,3.57
2023-01-11T23:18:57.952Z,2.80
2023-01-11T23:21:24.801Z,6.63
2023-01-11T23:23:51.474Z,2.93
2023-01-11T23:26:18.205Z,4.70
2023-01-11T23:28:46.300Z,3.93
2023-01-11T23:31:19.262Z,4.10
2023-01-11T23:33:55.257Z,4.70
2023-01-11T23:36:23.782Z,4.80
2023-01-11T23:38:51.102Z,2.80
2023-01-11T23:41:37.885Z,2.93
2023-01-11T23:44:09.625Z,6.20
2023-01-11T23:46:56.031Z,2.33
2023-01-11T23:49:24.752Z,4.07
2023-01-11T23:51:52.017Z,2.50
2023-01-11T23:54:18.761Z,2.80
2023-01-11T23:56:45.449Z,3.53
2023-01-11T23:59:12.667Z,5.37
